Terminal Aerodrome Forecast
Issued by NWS Grand Rapids, MI

Home | Current Version | Previous Version | Text Only | Print | Product List | Glossary On
Versions: 1 2 3 4 5 6 7 8 9 10 11 12 13 14 15 16 17 18 19 20 21 22 23
000
FTUS43 KGRR 232321
TAFGRR
TAF
KGRR 232321Z 2400/2424 30014KT P6SM SCT070 SCT150 BKN200
     FM240300 28008KT P6SM BKN080
     FM241500 27014G24KT P6SM BKN050=

USA.gov is the U.S. government's official web portal to all federal, state and local government web resources and services.